Time;durP1;ratioP1;P1;durP2;ratioP2;P2;SDS_P1;SDS_P2;PMS_P1;PMS_P2;Temp;Humidity;BMP_temperature;BMP_pressure;BME280_temperature;BME280_humidity;BME280_pressure;Samples;Min_cycle;Max_cycle;Signal;HPM_P1;HPM_P2
2021/12/27 00:01:36;;;;;;;143.13;74.47;;;;;;;-8.94;56.77;100228.44;5023983;28;20655;-66
2021/12/27 00:04:03;;;;;;;129.20;70.53;;;;;;;-8.96;56.47;100219.88;5024863;28;20041;-67
2021/12/27 00:06:30;;;;;;;131.50;60.80;;;;;;;-8.99;56.80;100217.28;5023090;28;20046;-66
2021/12/27 00:08:57;;;;;;;108.07;57.15;;;;;;;-9.00;56.93;100220.69;5024033;28;20085;-65
2021/12/27 00:11:24;;;;;;;103.82;54.00;;;;;;;-8.99;56.88;100222.41;5022985;28;20144;-65
2021/12/27 00:13:51;;;;;;;60.40;38.90;;;;;;;-9.01;56.98;100217.28;5023861;28;20056;-65
2021/12/27 00:16:18;;;;;;;117.88;52.58;;;;;;;-9.04;56.56;100223.25;5024312;28;20052;-65
2021/12/27 00:18:47;;;;;;;77.60;48.13;;;;;;;-9.02;57.02;100230.06;5024091;28;20049;-64
2021/12/27 00:21:14;;;;;;;121.93;63.58;;;;;;;-9.04;56.56;100230.94;5023458;28;20047;-66
2021/12/27 00:23:41;;;;;;;92.40;49.53;;;;;;;-9.06;57.05;100232.59;5006644;28;20509;-65
2021/12/27 00:26:08;;;;;;;97.75;48.63;;;;;;;-9.11;56.53;100236.84;5024958;28;20052;-66
2021/12/27 00:28:35;;;;;;;99.32;55.85;;;;;;;-9.10;57.11;100238.53;5023822;28;20041;-63
2021/12/27 00:31:03;;;;;;;135.38;66.93;;;;;;;-9.09;56.67;100242.81;5024296;28;20051;-64
2021/12/27 00:33:30;;;;;;;100.80;61.88;;;;;;;-9.08;56.55;100249.63;5024441;28;20049;-65
2021/12/27 00:35:59;;;;;;;150.57;72.80;;;;;;;-9.05;56.59;100247.13;5024330;28;20053;-65
2021/12/27 00:38:26;;;;;;;111.53;59.22;;;;;;;-9.05;56.81;100243.72;5024990;28;20681;-66
2021/12/27 00:40:54;;;;;;;101.35;58.90;;;;;;;-9.02;56.76;100240.31;5023485;28;20495;-65
2021/12/27 00:43:20;;;;;;;103.47;58.75;;;;;;;-9.02;56.60;100245.41;5022775;28;20077;-68
2021/12/27 00:45:48;;;;;;;105.45;61.97;;;;;;;-9.01;56.80;100245.44;5024248;28;20049;-65
2021/12/27 00:48:17;;;;;;;108.60;51.83;;;;;;;-9.02;56.42;100246.25;5023574;28;20056;-63
2021/12/27 00:50:44;;;;;;;111.53;55.80;;;;;;;-9.04;56.93;100242.84;5023004;28;20049;-65
2021/12/27 00:53:13;;;;;;;105.50;60.70;;;;;;;-9.07;56.90;100243.69;5024629;28;20049;-66
2021/12/27 00:55:40;;;;;;;105.80;56.03;;;;;;;-9.11;56.91;100248.75;5023217;28;20667;-65
2021/12/27 00:58:07;;;;;;;91.45;47.85;;;;;;;-9.12;56.98;100245.34;5023580;28;20049;-64
2021/12/27 01:00:34;;;;;;;87.45;43.83;;;;;;;-9.14;57.22;100247.03;5023792;28;20049;-65
2021/12/27 01:03:01;;;;;;;65.20;35.83;;;;;;;-9.16;56.74;100246.19;5023059;28;20053;-65
2021/12/27 01:05:28;;;;;;;102.38;49.28;;;;;;;-9.20;56.75;100244.47;5023293;28;20132;-66
2021/12/27 01:07:56;;;;;;;68.07;43.00;;;;;;;-9.24;57.16;100247.81;5024338;28;20059;-66
2021/12/27 01:10:54;;;;;;;80.10;44.55;;;;;;;-9.28;56.80;100239.25;5024905;28;20132;-67
2021/12/27 01:13:26;;;;;;;73.80;37.50;;;;;;;-9.36;56.76;100242.59;5022878;28;20099;-66
2021/12/27 01:16:10;;;;;;;96.80;48.88;;;;;;;-9.49;56.91;100242.50;5023936;28;20081;-66
2021/12/27 01:18:40;;;;;;;80.50;45.83;;;;;;;-9.52;57.11;100246.75;5023411;28;20053;-67
2021/12/27 01:21:07;;;;;;;81.22;38.22;;;;;;;-9.55;56.88;100247.56;5024297;28;20072;-66
2021/12/27 01:23:34;;;;;;;73.93;33.58;;;;;;;-9.53;57.33;100248.41;5023300;28;20060;-64
2021/12/27 01:26:03;;;;;;;74.90;39.88;;;;;;;-9.48;57.30;100246.78;5024134;28;20060;-65
2021/12/27 01:28:30;;;;;;;71.03;31.25;;;;;;;-9.49;56.87;100244.19;5023721;28;20057;-66
2021/12/27 01:30:57;;;;;;;57.78;35.22;;;;;;;-9.47;57.06;100243.38;5023398;28;20052;-66
2021/12/27 01:33:25;;;;;;;53.90;27.70;;;;;;;-9.39;57.04;100247.72;5023099;28;20050;-66
2021/12/27 01:35:54;;;;;;;56.25;25.27;;;;;;;-9.34;57.17;100239.22;5023295;28;20080;-66
2021/12/27 01:38:21;;;;;;;45.58;24.23;;;;;;;-9.29;57.14;100246.91;5023402;28;20406;-65
2021/12/27 01:40:50;;;;;;;55.13;32.20;;;;;;;-9.31;57.27;100246.94;5027427;28;20409;-67
2021/12/27 01:43:21;;;;;;;76.15;37.92;;;;;;;-9.28;56.88;100240.97;5028674;28;20054;-65
2021/12/27 01:45:51;;;;;;;72.38;33.33;;;;;;;-9.26;57.06;100236.72;5030809;28;20093;-65
2021/12/27 01:48:23;;;;;;;102.70;55.80;;;;;;;-9.28;57.13;100244.38;5030485;28;20049;-67
2021/12/27 01:50:52;;;;;;;97.88;48.25;;;;;;;-9.29;57.00;100242.69;5030720;28;20053;-64
2021/12/27 01:53:20;;;;;;;83.40;52.97;;;;;;;-9.28;56.62;100248.66;5030090;28;20061;-65
2021/12/27 01:55:48;;;;;;;70.95;40.17;;;;;;;-9.31;56.70;100246.06;5029381;28;20051;-66
2021/12/27 01:58:15;;;;;;;73.60;40.38;;;;;;;-9.36;56.68;100245.16;5030871;28;20049;-65
2021/12/27 02:00:48;;;;;;;93.78;50.22;;;;;;;-9.40;56.64;100249.38;5030199;28;20449;-66
2021/12/27 02:03:15;;;;;;;70.75;41.60;;;;;;;-9.40;57.11;100243.41;5030468;28;20041;-64
2021/12/27 02:05:42;;;;;;;100.43;49.60;;;;;;;-9.39;56.72;100246.00;5030400;28;20060;-66
2021/12/27 02:08:10;;;;;;;91.85;49.67;;;;;;;-9.42;57.05;100253.63;5030338;28;20530;-65
2021/12/27 02:10:37;;;;;;;101.45;50.00;;;;;;;-9.47;56.97;100247.63;5030420;28;20207;-65
2021/12/27 02:13:04;;;;;;;104.15;49.75;;;;;;;-9.46;56.93;100249.34;5028663;28;20560;-66
2021/12/27 02:15:32;;;;;;;90.60;43.72;;;;;;;-9.45;57.32;100246.81;5029696;28;20053;-64
2021/12/27 02:18:00;;;;;;;43.80;21.23;;;;;;;-9.47;57.11;100238.28;5029843;28;20057;-66
2021/12/27 02:20:32;;;;;;;62.85;36.67;;;;;;;-9.55;56.74;100239.88;5030134;28;20041;-65
2021/12/27 02:23:02;;;;;;;70.20;35.53;;;;;;;-9.62;56.95;100230.44;5029823;28;20207;-65
2021/12/27 02:25:30;;;;;;;38.72;26.92;;;;;;;-9.56;56.85;100230.53;5030073;28;20053;-66
2021/12/27 02:27:58;;;;;;;39.85;20.38;;;;;;;-9.52;56.95;100234.81;5030240;28;20107;-66
2021/12/27 02:30:26;;;;;;;33.42;14.93;;;;;;;-9.49;56.69;100231.41;5029429;28;20041;-66
2021/12/27 02:32:55;;;;;;;45.67;26.77;;;;;;;-9.45;57.36;100228.91;5030158;28;20071;-65
2021/12/27 02:35:24;;;;;;;28.33;18.63;;;;;;;-9.37;57.38;100225.56;5029929;28;20056;-66
2021/12/27 02:37:54;;;;;;;37.85;17.40;;;;;;;-9.32;57.17;100226.44;5010828;28;20064;-66
2021/12/27 02:40:24;;;;;;;55.08;32.95;;;;;;;-9.28;56.93;100225.63;5029924;28;20046;-66
2021/12/27 02:42:57;;;;;;;51.90;30.27;;;;;;;-9.26;57.19;100217.09;5028552;28;20050;-66
2021/12/27 02:45:25;;;;;;;23.70;13.32;;;;;;;-9.26;56.79;100219.66;5029603;28;20121;-65
2021/12/27 02:47:52;;;;;;;51.63;24.80;;;;;;;-9.23;57.14;100221.41;5030314;28;20406;-65
2021/12/27 02:50:19;;;;;;;45.83;27.33;;;;;;;-9.29;57.02;100229.00;5030232;28;20045;-65
2021/12/27 02:52:47;;;;;;;73.72;40.53;;;;;;;-9.44;57.29;100216.97;5026812;28;20091;-66
2021/12/27 02:55:17;;;;;;;61.63;32.05;;;;;;;-9.51;57.24;100228.84;5026722;28;20081;-65
2021/12/27 02:57:44;;;;;;;61.85;32.58;;;;;;;-9.54;56.96;100228.84;5026536;28;20134;-66
2021/12/27 03:00:17;;;;;;;58.42;31.08;;;;;;;-9.58;56.84;100228.78;5025585;28;20051;-65
2021/12/27 03:02:45;;;;;;;46.42;29.90;;;;;;;-9.64;57.48;100216.81;5027227;28;20135;-65
2021/12/27 03:05:14;;;;;;;66.57;30.67;;;;;;;-9.69;57.17;100221.00;5026231;28;20076;-66
2021/12/27 03:07:41;;;;;;;42.72;23.20;;;;;;;-9.77;56.79;100212.44;5026518;28;20060;-65
2021/12/27 03:10:10;;;;;;;58.30;29.23;;;;;;;-9.79;57.14;100222.63;5025870;28;20120;-65
2021/12/27 03:12:39;;;;;;;53.17;36.30;;;;;;;-9.75;57.14;100210.75;5024264;28;20536;-65
2021/12/27 03:15:08;;;;;;;45.40;21.70;;;;;;;-9.79;57.11;100217.53;5026149;28;20076;-66
2021/12/27 03:17:35;;;;;;;34.45;19.05;;;;;;;-9.86;57.13;100218.31;5026342;28;20435;-64
2021/12/27 03:20:03;;;;;;;84.68;48.38;;;;;;;-9.92;56.77;100213.13;5025484;28;20042;-63
2021/12/27 03:22:31;;;;;;;65.53;40.63;;;;;;;-9.92;57.45;100208.88;5026365;28;20055;-66
2021/12/27 03:24:58;;;;;;;70.18;29.60;;;;;;;-9.88;56.88;100202.94;5026333;28;20063;-67
2021/12/27 03:27:25;;;;;;;62.97;33.20;;;;;;;-9.79;57.42;100204.75;5026610;28;20045;-64
2021/12/27 03:29:54;;;;;;;67.05;34.85;;;;;;;-9.71;57.03;100200.53;5025677;28;20056;-66
2021/12/27 03:32:22;;;;;;;78.93;40.88;;;;;;;-9.67;57.01;100203.97;5026773;28;20053;-65
2021/12/27 03:34:56;;;;;;;94.90;49.53;;;;;;;-9.70;56.85;100206.53;5025654;28;20386;-64
2021/12/27 03:37:23;;;;;;;90.53;46.42;;;;;;;-9.77;56.86;100204.75;5026072;28;20057;-65
2021/12/27 03:39:51;;;;;;;56.22;29.80;;;;;;;-9.83;57.09;100201.31;5025406;28;20076;-65
2021/12/27 03:42:18;;;;;;;38.22;25.13;;;;;;;-9.88;56.84;100197.84;5024397;28;20045;-66
2021/12/27 03:44:45;;;;;;;52.97;32.42;;;;;;;-10.01;56.69;100196.88;5026126;28;20054;-65
2021/12/27 03:47:14;;;;;;;59.17;28.52;;;;;;;-10.05;56.68;100189.16;5025953;28;20451;-66
2021/12/27 03:49:41;;;;;;;48.10;24.92;;;;;;;-10.09;57.28;100198.47;5024928;28;20061;-65
2021/12/27 03:52:08;;;;;;;55.28;27.17;;;;;;;-10.11;56.75;100192.50;5024959;28;20081;-65
2021/12/27 03:54:35;;;;;;;55.15;27.90;;;;;;;-10.11;56.99;100201.88;5025700;28;20086;-65
2021/12/27 03:57:02;;;;;;;97.75;45.03;;;;;;;-10.14;57.21;100200.13;5026046;28;20056;-65
2021/12/27 03:59:48;;;;;;;74.32;37.13;;;;;;;-10.19;57.02;100197.53;5025170;28;20140;-67
2021/12/27 04:02:17;;;;;;;70.57;35.40;;;;;;;-10.24;57.03;100190.66;5025055;28;20041;-64
2021/12/27 04:04:44;;;;;;;62.72;35.47;;;;;;;-10.32;57.09;100192.28;5024628;28;20050;-63
2021/12/27 04:07:12;;;;;;;66.68;39.00;;;;;;;-10.35;56.99;100190.56;5024655;28;20053;-63
2021/12/27 04:09:40;;;;;;;70.90;35.85;;;;;;;-10.35;56.82;100187.16;5025554;28;20136;-65
2021/12/27 04:12:08;;;;;;;61.70;31.10;;;;;;;-10.38;56.52;100187.97;5023855;28;20554;-65
2021/12/27 04:14:35;;;;;;;31.08;17.58;;;;;;;-10.43;56.99;100187.06;5025217;28;20631;-65
2021/12/27 04:17:02;;;;;;;46.58;11.80;;;;;;;-10.45;56.85;100181.09;5025390;28;20048;-67
2021/12/27 04:19:30;;;;;;;65.55;32.90;;;;;;;-10.48;56.90;100192.09;5025399;28;20663;-64
2021/12/27 04:21:57;;;;;;;16.27;11.80;;;;;;;-10.52;57.31;100182.72;5025675;28;20045;-64
2021/12/27 04:24:24;;;;;;;55.40;27.58;;;;;;;-10.57;56.59;100181.78;5024935;28;20056;-66
2021/12/27 04:26:51;;;;;;;69.72;37.83;;;;;;;-10.60;56.57;100180.06;5025606;28;20390;-65
2021/12/27 04:29:18;;;;;;;62.35;35.30;;;;;;;-10.56;56.58;100183.53;5025966;28;20056;-66
2021/12/27 04:31:45;;;;;;;73.65;40.47;;;;;;;-10.51;56.72;100175.94;5025043;28;20052;-65
2021/12/27 04:34:12;;;;;;;26.55;20.70;;;;;;;-10.45;57.39;100170.88;5025719;28;20052;-62
2021/12/27 04:36:41;;;;;;;12.55;6.72;;;;;;;-10.26;57.36;100170.22;4990013;28;20055;-64
2021/12/27 04:39:08;;;;;;;27.85;18.83;;;;;;;-10.07;57.22;100167.84;5025055;28;20486;-65
2021/12/27 04:41:36;;;;;;;39.97;22.98;;;;;;;-9.93;57.02;100163.72;5023408;28;20041;-65
2021/12/27 04:44:04;;;;;;;73.80;33.50;;;;;;;-9.81;57.18;100163.84;5007350;28;20061;-69
2021/12/27 04:46:32;;;;;;;88.45;41.85;;;;;;;-9.71;57.23;100166.47;5025864;28;20050;-63
2021/12/27 04:48:59;;;;;;;61.80;34.78;;;;;;;-9.68;57.34;100175.00;5025267;28;20076;-65
2021/12/27 04:51:26;;;;;;;53.58;27.73;;;;;;;-9.61;57.31;100188.72;5024397;28;20145;-64
2021/12/27 04:53:56;;;;;;;57.35;27.88;;;;;;;-9.53;57.18;100184.50;5024164;28;20054;-65
2021/12/27 04:56:23;;;;;;;46.88;28.02;;;;;;;-9.46;57.06;100188.81;5024688;28;20091;-66
2021/12/27 04:58:51;;;;;;;100.43;40.92;;;;;;;-9.42;56.90;100188.03;5024271;28;20077;-66
2021/12/27 05:01:18;;;;;;;72.78;36.35;;;;;;;-9.44;57.06;100192.25;5024932;28;20050;-66
2021/12/27 05:03:45;;;;;;;66.40;35.17;;;;;;;-9.43;57.05;100186.28;5025058;28;20096;-66
2021/12/27 05:06:13;;;;;;;80.05;39.55;;;;;;;-9.42;56.84;100190.59;5025448;28;20057;-65
2021/12/27 05:08:41;;;;;;;90.35;35.58;;;;;;;-9.42;57.27;100190.59;5025359;28;20050;-65
2021/12/27 05:11:10;;;;;;;67.03;38.47;;;;;;;-9.39;56.72;100189.72;5024064;28;20050;-66
2021/12/27 05:13:37;;;;;;;59.83;33.20;;;;;;;-9.37;56.76;100190.59;5022025;28;20052;-66
2021/12/27 05:16:05;;;;;;;72.20;36.60;;;;;;;-9.35;57.13;100185.50;5024566;28;20454;-66
2021/12/27 05:18:32;;;;;;;60.38;36.08;;;;;;;-9.34;57.01;100177.84;5024335;28;20045;-66
2021/12/27 05:20:59;;;;;;;67.00;36.28;;;;;;;-9.32;56.81;100175.31;5023692;28;20049;-64
2021/12/27 05:23:26;;;;;;;60.05;34.55;;;;;;;-9.31;57.03;100183.00;5023196;28;20046;-64
2021/12/27 05:25:53;;;;;;;62.35;39.75;;;;;;;-9.30;56.95;100179.56;5024358;28;20418;-68
2021/12/27 05:28:21;;;;;;;61.50;28.98;;;;;;;-9.29;57.07;100172.75;5024019;28;20132;-67
2021/12/27 05:30:51;;;;;;;32.38;23.13;;;;;;;-9.36;56.73;100178.66;5024686;28;20527;-65
2021/12/27 05:33:19;;;;;;;55.90;33.42;;;;;;;-9.36;56.73;100184.66;5024078;28;20053;-65
2021/12/27 05:35:46;;;;;;;29.90;15.15;;;;;;;-9.33;57.13;100184.66;5023753;28;20045;-65
2021/12/27 05:38:13;;;;;;;56.78;27.88;;;;;;;-9.31;56.88;100179.56;5024274;28;20607;-65
2021/12/27 05:40:41;;;;;;;53.25;25.90;;;;;;;-9.30;57.01;100176.16;5023536;28;20041;-64
2021/12/27 05:43:09;;;;;;;50.55;29.15;;;;;;;-9.28;57.09;100171.91;5021753;28;20052;-65
2021/12/27 05:45:38;;;;;;;22.42;12.02;;;;;;;-9.21;57.54;100173.66;5023809;28;20049;-65
2021/12/27 05:48:06;;;;;;;48.42;28.10;;;;;;;-9.16;56.96;100176.22;5023612;28;20046;-67
2021/12/27 05:50:34;;;;;;;63.60;32.58;;;;;;;-9.13;57.03;100178.81;5024833;28;20045;-66
2021/12/27 05:53:01;;;;;;;78.70;39.72;;;;;;;-9.12;57.21;100178.84;5024291;28;20045;-65
2021/12/27 05:55:29;;;;;;;70.32;38.20;;;;;;;-9.11;56.98;100178.00;5022882;28;20053;-66
2021/12/27 05:57:56;;;;;;;80.90;40.10;;;;;;;-9.09;57.11;100178.88;5024822;28;20164;-66
2021/12/27 06:00:23;;;;;;;80.13;37.78;;;;;;;-9.07;56.79;100173.75;5024107;28;20684;-66
2021/12/27 06:02:54;;;;;;;83.28;42.33;;;;;;;-9.07;57.16;100176.31;5022744;28;20041;-66
2021/12/27 06:05:22;;;;;;;84.43;41.95;;;;;;;-9.08;56.98;100180.56;5023152;28;20625;-66
2021/12/27 06:07:50;;;;;;;71.65;37.88;;;;;;;-9.08;57.15;100180.56;5023208;28;20071;-66
2021/12/27 06:10:17;;;;;;;88.45;45.75;;;;;;;-9.10;57.16;100182.25;5023013;28;20133;-67
2021/12/27 06:12:44;;;;;;;75.68;37.20;;;;;;;-9.09;57.20;100185.66;5022448;28;20050;-65
2021/12/27 06:15:12;;;;;;;67.00;38.22;;;;;;;-9.09;57.00;100185.66;5023958;28;20046;-64
2021/12/27 06:17:40;;;;;;;56.00;28.88;;;;;;;-9.13;56.83;100184.78;5021394;28;20675;-64
2021/12/27 06:20:12;;;;;;;76.40;44.17;;;;;;;-9.15;57.09;100180.50;5023715;28;20072;-66
2021/12/27 06:22:41;;;;;;;65.03;34.08;;;;;;;-9.15;57.44;100177.97;5023281;28;20051;-66
2021/12/27 06:25:09;;;;;;;68.22;39.60;;;;;;;-9.19;57.53;100181.34;5022190;28;20051;-66
2021/12/27 06:27:36;;;;;;;53.72;31.80;;;;;;;-9.20;57.20;100177.94;5023930;28;20076;-65
2021/12/27 06:30:06;;;;;;;83.32;43.28;;;;;;;-9.22;57.27;100182.16;5026875;28;20055;-66
2021/12/27 06:32:33;;;;;;;81.25;38.80;;;;;;;-9.24;57.17;100188.97;5025833;28;20157;-66
2021/12/27 06:35:00;;;;;;;74.35;42.40;;;;;;;-9.26;57.05;100196.63;5026185;28;20051;-66
2021/12/27 06:37:29;;;;;;;82.60;38.55;;;;;;;-9.26;57.25;100199.19;5025324;28;20049;-65
2021/12/27 06:39:56;;;;;;;63.15;33.30;;;;;;;-9.28;57.40;100194.94;5025694;28;20129;-65
2021/12/27 06:42:23;;;;;;;72.70;42.22;;;;;;;-9.31;57.45;100197.47;5024948;28;20179;-65
2021/12/27 06:44:50;;;;;;;67.03;40.28;;;;;;;-9.40;56.95;100188.00;5025365;28;20049;-64
2021/12/27 06:47:17;;;;;;;92.82;48.38;;;;;;;-9.46;56.94;100187.97;5025557;28;20521;-64
2021/12/27 06:49:44;;;;;;;95.78;47.55;;;;;;;-9.51;57.04;100189.63;5025301;28;20055;-64
2021/12/27 06:52:12;;;;;;;73.25;39.65;;;;;;;-9.57;57.04;100193.00;5024876;28;20064;-67
2021/12/27 06:54:40;;;;;;;71.72;37.55;;;;;;;-9.59;57.31;100192.13;5024710;28;20056;-65
2021/12/27 06:57:08;;;;;;;74.03;41.40;;;;;;;-9.59;57.34;100194.69;5025398;28;20652;-65
2021/12/27 06:59:35;;;;;;;55.83;32.00;;;;;;;-9.57;57.07;100195.56;5023641;28;20057;-65
2021/12/27 07:02:02;;;;;;;88.80;45.38;;;;;;;-9.52;57.18;100199.00;5024085;28;20468;-64
2021/12/27 07:04:31;;;;;;;48.63;27.80;;;;;;;-9.44;57.52;100202.47;5024457;28;20041;-65
2021/12/27 07:06:58;;;;;;;77.10;41.22;;;;;;;-9.35;57.19;100190.63;5022199;28;20054;-65
2021/12/27 07:09:25;;;;;;;92.47;51.53;;;;;;;-9.26;57.11;100193.22;5022928;28;20136;-66
2021/12/27 07:11:53;;;;;;;109.43;55.50;;;;;;;-9.15;56.91;100199.28;5022319;28;20053;-64
2021/12/27 07:14:20;;;;;;;68.13;36.60;;;;;;;-9.05;57.12;100200.22;5023132;28;20048;-65
2021/12/27 07:16:47;;;;;;;71.03;41.97;;;;;;;-8.97;57.21;100202.81;5023473;28;20122;-64
2021/12/27 07:19:14;;;;;;;63.58;31.92;;;;;;;-8.89;57.10;100201.16;5022811;28;20498;-66
2021/12/27 07:21:41;;;;;;;80.13;37.25;;;;;;;-8.80;56.92;100206.31;5023490;28;20056;-64
2021/12/27 07:24:09;;;;;;;49.17;33.95;;;;;;;-8.71;56.76;100211.50;5023229;28;20049;-65
2021/12/27 07:26:36;;;;;;;89.85;42.95;;;;;;;-8.62;57.09;100204.69;5022508;28;20658;-65
2021/12/27 07:29:04;;;;;;;103.57;50.17;;;;;;;-8.55;57.35;100194.50;5022794;28;20456;-63
2021/12/27 07:31:31;;;;;;;80.38;37.28;;;;;;;-8.46;56.97;100201.38;5022647;28;20045;-62
2021/12/27 07:34:00;;;;;;;118.22;64.95;;;;;;;-8.40;56.89;100193.66;5021916;28;20064;-63
2021/12/27 07:36:27;;;;;;;83.07;39.33;;;;;;;-8.33;57.15;100195.41;5023123;28;20099;-65
2021/12/27 07:38:54;;;;;;;97.38;45.38;;;;;;;-8.24;57.18;100196.28;5022757;28;20049;-63
2021/12/27 07:41:21;;;;;;;100.65;46.70;;;;;;;-8.19;56.96;100192.00;5019934;28;20049;-66
2021/12/27 07:43:48;;;;;;;91.30;41.78;;;;;;;-8.13;56.94;100199.75;5022512;28;20140;-64
2021/12/27 07:46:16;;;;;;;96.95;46.78;;;;;;;-8.06;57.00;100206.59;5023034;28;20132;-65
2021/12/27 07:48:44;;;;;;;87.45;42.78;;;;;;;-7.99;57.13;100205.75;5022385;28;20056;-65
2021/12/27 07:51:11;;;;;;;80.63;36.80;;;;;;;-7.94;56.72;100210.88;5021831;28;20081;-65
2021/12/27 07:53:38;;;;;;;69.22;40.38;;;;;;;-7.90;56.84;100207.50;5022889;28;20084;-66
2021/12/27 07:56:08;;;;;;;114.95;50.65;;;;;;;-7.85;56.85;100208.31;5021371;28;20049;-65
2021/12/27 07:58:35;;;;;;;73.68;38.80;;;;;;;-7.80;56.84;100201.50;5022047;28;20041;-66
2021/12/27 08:01:02;;;;;;;93.03;40.53;;;;;;;-7.76;56.94;100190.41;5022295;28;20049;-65
2021/12/27 08:03:30;;;;;;;94.55;43.75;;;;;;;-7.71;56.74;100195.53;5021622;28;20077;-67
2021/12/27 08:05:58;;;;;;;106.65;53.92;;;;;;;-7.68;56.99;100191.25;5021019;28;20052;-64
2021/12/27 08:08:25;;;;;;;100.18;51.92;;;;;;;-7.61;57.04;100175.91;5021589;28;20398;-66
2021/12/27 08:10:52;;;;;;;83.63;39.35;;;;;;;-7.52;57.11;100181.03;5020268;28;20049;-65
2021/12/27 08:13:19;;;;;;;92.90;48.13;;;;;;;-7.44;57.13;100176.72;5019352;28;20048;-66
2021/12/27 08:15:46;;;;;;;85.15;40.92;;;;;;;-7.36;56.77;100174.19;5021329;28;20136;-67
2021/12/27 08:18:13;;;;;;;37.17;20.00;;;;;;;-7.30;56.65;100172.44;5020862;28;20054;-66
2021/12/27 08:20:41;;;;;;;62.33;29.33;;;;;;;-7.24;56.70;100170.72;5020924;28;20136;-65
2021/12/27 08:23:08;;;;;;;54.13;20.35;;;;;;;-7.19;56.86;100172.44;5020762;28;20056;-64
2021/12/27 08:25:38;;;;;;;88.80;45.33;;;;;;;-7.12;56.83;100174.13;5019712;28;20042;-66
2021/12/27 08:28:06;;;;;;;81.82;41.53;;;;;;;-7.03;56.85;100177.56;5020814;28;20051;-65
2021/12/27 08:30:33;;;;;;;73.50;39.65;;;;;;;-6.93;56.99;100174.13;5021490;28;20192;-66
2021/12/27 08:33:00;;;;;;;55.60;31.63;;;;;;;-6.84;56.75;100168.94;5020135;28;20049;-67
2021/12/27 08:35:28;;;;;;;103.82;49.15;;;;;;;-6.74;56.57;100168.03;5020418;28;20051;-67
2021/12/27 08:37:56;;;;;;;91.68;46.53;;;;;;;-6.62;56.67;100174.00;5021035;28;20566;-65
2021/12/27 08:40:23;;;;;;;59.10;28.95;;;;;;;-6.54;56.47;100167.97;5019037;28;20055;-67
2021/12/27 08:42:50;;;;;;;72.10;37.05;;;;;;;-6.47;56.31;100171.38;5017642;28;20761;-66
2021/12/27 08:45:17;;;;;;;67.30;32.80;;;;;;;-6.36;56.15;100171.31;5020404;28;20060;-66
2021/12/27 08:47:44;;;;;;;41.40;23.75;;;;;;;-6.22;56.06;100171.25;5018950;28;20487;-66
2021/12/27 08:50:13;;;;;;;79.43;37.65;;;;;;;-6.15;55.97;100165.22;5017891;28;20045;-63
2021/12/27 08:52:41;;;;;;;88.65;48.22;;;;;;;-6.07;55.93;100168.59;5019561;28;20053;-66
2021/12/27 08:55:11;;;;;;;65.40;34.90;;;;;;;-5.98;55.81;100163.41;5019350;28;20050;-66
2021/12/27 08:57:40;;;;;;;74.82;39.97;;;;;;;-5.86;55.55;100164.16;5019244;28;20628;-66
2021/12/27 09:00:10;;;;;;;49.45;26.10;;;;;;;-5.77;55.68;100162.38;5019050;28;20491;-65
2021/12/27 09:02:37;;;;;;;77.18;37.78;;;;;;;-5.67;55.42;100163.16;5017828;28;20126;-66
2021/12/27 09:05:06;;;;;;;80.93;37.30;;;;;;;-5.58;55.23;100162.25;5018981;28;20053;-66
2021/12/27 09:07:33;;;;;;;56.67;31.55;;;;;;;-5.49;55.16;100154.44;5018906;28;20077;-67
2021/12/27 09:10:00;;;;;;;65.82;29.05;;;;;;;-5.40;55.30;100158.66;5017587;28;20049;-65
2021/12/27 09:12:29;;;;;;;80.75;34.13;;;;;;;-5.25;55.10;100161.09;5017272;28;20562;-67
2021/12/27 09:14:56;;;;;;;80.03;33.88;;;;;;;-5.10;55.00;100162.66;5018352;28;20049;-66
2021/12/27 09:17:23;;;;;;;57.55;31.20;;;;;;;-4.99;54.77;100162.53;5017680;28;20053;-66
2021/12/27 09:19:51;;;;;;;45.13;20.10;;;;;;;-4.90;54.58;100159.88;5019334;28;20049;-67
2021/12/27 09:22:18;;;;;;;71.03;33.42;;;;;;;-4.87;54.74;100152.09;5018616;28;20052;-66
2021/12/27 09:24:46;;;;;;;68.43;35.22;;;;;;;-4.80;54.62;100152.91;5017064;28;20061;-66
2021/12/27 09:27:13;;;;;;;73.22;32.55;;;;;;;-4.71;54.66;100149.38;5019822;28;20079;-66
2021/12/27 09:29:43;;;;;;;52.53;21.25;;;;;;;-4.63;54.71;100139.81;5017892;28;20057;-66
2021/12/27 09:32:10;;;;;;;59.80;29.00;;;;;;;-4.60;54.55;100142.34;5016659;28;20055;-65
2021/12/27 09:34:38;;;;;;;72.22;37.50;;;;;;;-4.50;54.52;100137.94;5018134;28;20053;-65
2021/12/27 09:37:06;;;;;;;62.08;29.60;;;;;;;-4.37;54.39;100148.97;5016492;28;20081;-65
2021/12/27 09:39:33;;;;;;;54.45;32.58;;;;;;;-4.28;54.31;100141.94;5015548;28;20709;-66
2021/12/27 09:42:01;;;;;;;56.45;29.98;;;;;;;-4.23;54.03;100140.16;5015889;28;20050;-67
2021/12/27 09:44:28;;;;;;;54.58;23.95;;;;;;;-4.17;53.88;100131.47;5016652;28;20058;-65
2021/12/27 09:46:57;;;;;;;40.97;18.85;;;;;;;-4.09;53.64;100132.25;5016200;28;20251;-66
2021/12/27 09:49:29;;;;;;;57.42;26.52;;;;;;;-4.00;53.55;100117.47;5016921;28;20053;-65
2021/12/27 09:51:57;;;;;;;28.58;17.75;;;;;;;-3.88;53.79;100112.13;5017621;28;20052;-65
2021/12/27 09:54:25;;;;;;;43.17;22.35;;;;;;;-3.84;53.91;100112.06;5018289;28;20054;-65
2021/12/27 09:56:53;;;;;;;60.92;26.08;;;;;;;-3.75;53.63;100105.91;5018509;28;20047;-65
2021/12/27 09:59:20;;;;;;;35.53;18.75;;;;;;;-3.72;53.46;100100.69;5016700;28;20488;-65
2021/12/27 10:01:47;;;;;;;48.42;21.48;;;;;;;-3.68;53.74;100093.75;5017834;28;20462;-66
2021/12/27 10:04:15;;;;;;;42.80;24.52;;;;;;;-3.62;53.64;100103.13;5021270;28;20053;-65
2021/12/27 10:06:43;;;;;;;56.67;28.40;;;;;;;-3.58;53.64;100092.72;5020348;28;20125;-66
2021/12/27 10:09:10;;;;;;;39.67;23.70;;;;;;;-3.50;53.24;100097.75;5021245;28;20077;-65
2021/12/27 10:11:40;;;;;;;44.33;24.85;;;;;;;-3.38;53.42;100092.38;5018913;28;20494;-65
2021/12/27 10:14:08;;;;;;;50.00;27.35;;;;;;;-3.32;52.99;100081.91;5020501;28;20042;-63
2021/12/27 10:16:38;;;;;;;39.60;21.30;;;;;;;-3.25;52.84;100079.25;5022512;28;20041;-64
2021/12/27 10:19:07;;;;;;;38.05;20.85;;;;;;;-3.14;52.83;100072.13;5021931;28;20056;-66
2021/12/27 10:21:35;;;;;;;47.30;23.30;;;;;;;-2.90;52.88;100073.38;5020986;28;20109;-65
2021/12/27 10:24:05;;;;;;;50.45;20.10;;;;;;;-2.70;52.73;100066.06;5021269;28;20777;-66
2021/12/27 10:26:34;;;;;;;36.97;19.00;;;;;;;-2.65;52.75;100063.38;5021196;28;20056;-66
2021/12/27 10:29:18;;;;;;;46.03;22.33;;;;;;;-2.71;52.79;100059.19;5019484;28;20059;-66
2021/12/27 10:32:03;;;;;;;35.38;19.15;;;;;;;-2.70;52.44;100057.47;5021583;28;20064;-68
2021/12/27 10:34:33;;;;;;;48.53;20.23;;;;;;;-2.63;52.76;100064.22;5019830;28;20743;-66
2021/12/27 10:37:14;;;;;;;59.15;31.75;;;;;;;-2.42;51.75;100062.03;5019381;28;20140;-65
2021/12/27 10:39:50;;;;;;;35.05;17.83;;;;;;;-2.21;51.74;100066.72;5021075;28;20045;-65
2021/12/27 10:42:20;;;;;;;53.40;27.48;;;;;;;-2.11;51.24;100064.75;5018230;28;20053;-66
2021/12/27 10:44:51;;;;;;;45.88;21.83;;;;;;;-2.16;50.99;100070.06;5021820;28;20482;-64
2021/12/27 10:47:43;;;;;;;39.58;17.80;;;;;;;-2.24;51.43;100060.78;5019677;28;20167;-64
2021/12/27 10:50:17;;;;;;;57.05;27.13;;;;;;;-2.33;51.19;100056.66;4958007;28;20129;-67
2021/12/27 10:52:49;;;;;;;44.30;24.33;;;;;;;-2.25;51.28;100039.22;4959403;28;20057;-66
2021/12/27 10:55:21;;;;;;;33.80;17.45;;;;;;;-2.21;51.26;100040.00;4958632;28;20125;-65
2021/12/27 10:57:48;;;;;;;28.40;18.17;;;;;;;-2.21;51.20;100040.84;4957475;28;20046;-68
2021/12/27 11:00:19;;;;;;;28.92;14.20;;;;;;;-2.23;51.35;100032.28;4959405;28;20078;-66
2021/12/27 11:02:46;;;;;;;32.70;17.17;;;;;;;-2.21;51.44;100042.59;4957489;28;20091;-66
2021/12/27 11:05:15;;;;;;;29.80;15.15;;;;;;;-2.22;51.56;100044.31;4958963;28;20776;-66
2021/12/27 11:07:43;;;;;;;35.75;15.15;;;;;;;-2.13;51.46;100040.66;4943135;28;20582;-66
2021/12/27 11:10:12;;;;;;;35.08;16.90;;;;;;;-2.05;51.45;100045.66;4956640;28;20783;-64
2021/12/27 11:12:39;;;;;;;41.83;20.35;;;;;;;-1.92;51.33;100039.31;4956094;28;20500;-65